Time;durP1;ratioP1;P1;durP2;ratioP2;P2;SDS_P1;SDS_P2;PMS_P1;PMS_P2;Temp;Humidity;BMP_temperature;BMP_pressure;BME280_temperature;BME280_humidity;BME280_pressure;Samples;Min_cycle;Max_cycle;Signal;HPM_P1;HPM_P2
2024/02/16 00:01:53;;;;;;;7.05;4.93;;;;;;;8.99;60.05;100459.03;4999636;28;20034;-63
2024/02/16 00:04:19;;;;;;;7.88;5.15;;;;;;;8.94;60.56;100459.44;5001884;28;20042;-63
2024/02/16 00:06:44;;;;;;;7.00;4.57;;;;;;;8.80;61.11;100463.28;4999818;28;20041;-62
2024/02/16 00:09:10;;;;;;;9.40;4.47;;;;;;;8.89;61.02;100469.56;5000658;28;20088;-62
2024/02/16 00:11:36;;;;;;;7.45;4.40;;;;;;;8.99;60.57;100464.31;5000858;28;20193;-62
2024/02/16 00:14:02;;;;;;;9.02;5.25;;;;;;;8.93;60.77;100461.25;5000498;28;20205;-61
2024/02/16 00:16:27;;;;;;;8.35;5.28;;;;;;;8.76;61.65;100463.69;5001090;28;20085;-64
2024/02/16 00:18:53;;;;;;;7.30;4.97;;;;;;;8.55;62.30;100461.06;4999373;28;20038;-63
2024/02/16 00:21:18;;;;;;;7.38;4.53;;;;;;;8.59;62.56;100457.22;5001158;28;20080;-62
2024/02/16 00:23:45;;;;;;;10.68;5.43;;;;;;;8.71;62.43;100463.22;5000093;28;20030;-62
2024/02/16 00:26:10;;;;;;;10.98;7.05;;;;;;;8.71;62.46;100461.44;5000748;28;20030;-61
2024/02/16 00:28:36;;;;;;;16.13;7.68;;;;;;;8.75;62.43;100459.38;4999007;28;20323;-62
2024/02/16 00:31:02;;;;;;;16.48;8.90;;;;;;;8.76;62.41;100467.16;5000657;28;20340;-62
2024/02/16 00:33:29;;;;;;;15.63;8.50;;;;;;;8.88;62.19;100466.09;4999596;28;20061;-64
2024/02/16 00:35:54;;;;;;;12.35;7.20;;;;;;;8.93;61.11;100460.41;5000995;28;20058;-63
2024/02/16 00:38:20;;;;;;;10.50;6.38;;;;;;;8.93;61.13;100455.13;4999257;28;20288;-61
2024/02/16 00:40:45;;;;;;;10.25;6.65;;;;;;;8.55;62.10;100455.81;5001048;28;20038;-62
2024/02/16 00:43:11;;;;;;;11.75;7.07;;;;;;;8.39;63.04;100466.84;5000729;28;20038;-62
2024/02/16 00:45:38;;;;;;;12.55;7.82;;;;;;;8.23;64.27;100461.13;5000288;28;20233;-62
2024/02/16 00:48:03;;;;;;;13.45;7.18;;;;;;;8.49;63.48;100461.59;5000136;28;20046;-62
2024/02/16 00:50:29;;;;;;;12.25;6.70;;;;;;;8.27;64.10;100467.81;4998262;28;20409;-62
2024/02/16 00:52:54;;;;;;;13.30;7.50;;;;;;;8.21;64.71;100466.53;5000800;28;20117;-63
2024/02/16 00:55:20;;;;;;;13.90;7.30;;;;;;;8.36;64.28;100466.25;4999296;28;20275;-62
2024/02/16 00:57:45;;;;;;;14.57;7.93;;;;;;;8.39;64.48;100469.47;5000542;28;20038;-62
2024/02/16 01:00:11;;;;;;;15.43;7.43;;;;;;;8.34;64.29;100471.66;4999286;28;20085;-62
2024/02/16 01:02:37;;;;;;;15.68;7.53;;;;;;;8.43;64.35;100467.41;4999714;28;20094;-62
2024/02/16 01:05:03;;;;;;;13.80;7.78;;;;;;;8.54;63.79;100459.41;4998736;28;20031;-63
2024/02/16 01:07:29;;;;;;;13.38;8.10;;;;;;;8.54;63.42;100459.41;4999982;28;20077;-63
2024/02/16 01:09:56;;;;;;;11.48;5.85;;;;;;;8.67;63.14;100454.75;4998745;28;20340;-62
2024/02/16 01:12:21;;;;;;;9.85;5.80;;;;;;;8.77;62.53;100452.97;5000835;28;20076;-62
2024/02/16 01:14:47;;;;;;;8.88;4.88;;;;;;;8.70;62.76;100462.41;4998142;28;20046;-62
2024/02/16 01:17:12;;;;;;;9.13;5.03;;;;;;;8.62;63.05;100465.69;5000402;28;20040;-62
2024/02/16 01:19:38;;;;;;;9.32;5.78;;;;;;;8.79;62.84;100468.69;4999962;28;20045;-62
2024/02/16 01:22:03;;;;;;;8.48;5.72;;;;;;;8.81;62.99;100462.31;4981710;28;20050;-62
2024/02/16 01:24:29;;;;;;;10.55;6.05;;;;;;;8.84;62.40;100459.41;4980326;28;20363;-63
2024/02/16 01:26:54;;;;;;;7.75;5.45;;;;;;;8.85;62.08;100454.94;4994835;28;20344;-63
2024/02/16 01:29:20;;;;;;;7.45;5.07;;;;;;;8.87;62.27;100460.94;4999891;28;20279;-62
2024/02/16 01:31:45;;;;;;;8.00;4.63;;;;;;;8.84;61.66;100454.13;4998807;28;20229;-61
2024/02/16 01:34:11;;;;;;;6.93;4.40;;;;;;;8.85;61.81;100457.59;5000627;28;20034;-62
2024/02/16 01:36:36;;;;;;;9.65;5.00;;;;;;;8.91;61.66;100455.25;4999025;28;20022;-63
2024/02/16 01:39:02;;;;;;;7.75;4.80;;;;;;;8.92;61.45;100453.44;5000405;28;20105;-63
2024/02/16 01:41:28;;;;;;;10.35;5.35;;;;;;;9.02;61.08;100453.47;4998484;28;20034;-62
2024/02/16 01:43:54;;;;;;;7.15;4.60;;;;;;;9.04;60.99;100449.72;4999806;28;20045;-62
2024/02/16 01:46:20;;;;;;;7.68;5.05;;;;;;;9.16;60.63;100461.03;4997934;28;20340;-62
2024/02/16 01:48:46;;;;;;;6.65;4.32;;;;;;;9.14;60.65;100457.69;4979949;28;20058;-61
2024/02/16 01:51:13;;;;;;;6.78;4.88;;;;;;;9.04;60.95;100457.66;4980525;28;20066;-61
2024/02/16 01:53:40;;;;;;;7.65;4.88;;;;;;;9.05;60.65;100450.56;4997247;28;20038;-62
2024/02/16 01:56:06;;;;;;;10.77;4.63;;;;;;;9.00;60.87;100448.31;4998473;28;20252;-62
2024/02/16 01:58:33;;;;;;;7.07;4.32;;;;;;;9.03;60.48;100452.50;4998536;28;20050;-63
2024/02/16 02:00:58;;;;;;;7.35;4.15;;;;;;;8.98;60.66;100452.06;4997605;28;20504;-63
2024/02/16 02:03:24;;;;;;;6.18;4.55;;;;;;;8.83;60.85;100452.44;4996299;28;20052;-62
2024/02/16 02:05:50;;;;;;;8.70;4.55;;;;;;;8.74;61.46;100450.59;4999178;28;20211;-62
2024/02/16 02:08:16;;;;;;;7.63;4.82;;;;;;;8.75;61.13;100452.28;4997356;28;20383;-62
2024/02/16 02:10:42;;;;;;;6.43;4.20;;;;;;;8.73;61.03;100443.66;4999602;28;20097;-62
2024/02/16 02:13:08;;;;;;;7.65;4.68;;;;;;;8.78;61.34;100451.19;4996936;28;20034;-62
2024/02/16 02:15:34;;;;;;;7.65;3.95;;;;;;;8.76;61.12;100442.56;4998790;28;20391;-62
2024/02/16 02:18:00;;;;;;;8.07;5.18;;;;;;;8.74;61.47;100440.03;4998138;28;20347;-63
2024/02/16 02:20:25;;;;;;;6.97;4.55;;;;;;;8.62;61.41;100441.94;4998873;28;20150;-63
2024/02/16 02:22:51;;;;;;;7.40;3.92;;;;;;;8.56;61.88;100447.75;4997650;28;20026;-62
2024/02/16 02:25:16;;;;;;;5.22;4.18;;;;;;;8.55;62.06;100440.81;4998675;28;20046;-62
2024/02/16 02:27:42;;;;;;;6.43;4.22;;;;;;;8.51;61.82;100438.56;4997596;28;20038;-62
2024/02/16 02:30:08;;;;;;;7.72;4.50;;;;;;;8.52;62.02;100432.31;4999145;28;20037;-62
2024/02/16 02:32:34;;;;;;;6.30;4.07;;;;;;;8.49;62.15;100432.56;4997578;28;20085;-63
2024/02/16 02:35:01;;;;;;;6.57;4.18;;;;;;;8.43;62.68;100428.66;4998277;28;20244;-62
2024/02/16 02:37:27;;;;;;;7.85;4.57;;;;;;;8.47;62.43;100427.44;4997657;28;20038;-62
2024/02/16 02:39:53;;;;;;;5.70;3.95;;;;;;;8.47;62.30;100430.06;4998105;28;20038;-61
2024/02/16 02:42:18;;;;;;;8.77;4.30;;;;;;;8.40;62.34;100426.28;4998251;28;20057;-63
2024/02/16 02:44:49;;;;;;;5.93;4.38;;;;;;;8.34;62.59;100426.81;4998808;28;20040;-62
2024/02/16 02:47:18;;;;;;;6.50;4.10;;;;;;;8.37;62.21;100431.81;4997423;28;20074;-61
2024/02/16 02:49:44;;;;;;;7.95;4.35;;;;;;;8.28;62.15;100438.66;4998565;28;20065;-61
2024/02/16 02:52:09;;;;;;;6.90;4.20;;;;;;;8.24;61.97;100437.25;4998251;28;20038;-62
2024/02/16 02:54:35;;;;;;;5.10;3.63;;;;;;;8.26;61.83;100437.94;4998169;28;20042;-63
2024/02/16 02:57:02;;;;;;;7.25;4.10;;;;;;;8.26;61.92;100445.03;4998142;28;20042;-64
2024/02/16 02:59:27;;;;;;;5.75;4.25;;;;;;;8.40;61.85;100441.28;4996520;28;20255;-62
2024/02/16 03:01:52;;;;;;;8.57;4.25;;;;;;;8.56;60.92;100441.63;4998353;28;20049;-63
2024/02/16 03:04:18;;;;;;;6.93;4.55;;;;;;;8.37;61.89;100455.56;4997542;28;20092;-62
2024/02/16 03:06:44;;;;;;;6.68;4.10;;;;;;;8.13;62.44;100449.66;4998152;28;20069;-62
2024/02/16 03:09:12;;;;;;;6.90;4.72;;;;;;;7.89;63.39;100469.22;4996543;28;20359;-62
2024/02/16 03:11:38;;;;;;;8.15;5.07;;;;;;;7.62;64.51;100461.78;4998466;28;20117;-62
2024/02/16 03:14:04;;;;;;;5.35;4.07;;;;;;;7.62;64.69;100463.59;4999203;28;20065;-63
2024/02/16 03:16:30;;;;;;;9.18;5.03;;;;;;;7.65;65.58;100472.06;5002051;28;20057;-62
2024/02/16 03:18:56;;;;;;;6.50;4.70;;;;;;;7.51;66.14;100472.38;5000955;28;20410;-62
2024/02/16 03:21:21;;;;;;;8.13;5.80;;;;;;;7.66;65.90;100465.84;5001940;28;20042;-62
2024/02/16 03:23:47;;;;;;;7.22;4.85;;;;;;;7.62;65.99;100469.69;5000587;28;20077;-62
2024/02/16 03:26:16;;;;;;;7.55;4.68;;;;;;;7.45;66.43;100472.88;5002173;28;20310;-64
2024/02/16 03:28:48;;;;;;;7.80;5.45;;;;;;;7.19;68.06;100474.94;5001665;28;20050;-63
2024/02/16 03:31:22;;;;;;;6.97;4.43;;;;;;;7.01;68.80;100471.97;5000753;28;20034;-62
2024/02/16 03:33:48;;;;;;;8.77;4.90;;;;;;;7.32;67.72;100469.53;5001092;28;20065;-62
2024/02/16 03:36:15;;;;;;;7.10;4.82;;;;;;;7.49;67.33;100468.19;5000029;28;20362;-62
2024/02/16 03:38:50;;;;;;;8.40;5.28;;;;;;;7.49;66.31;100465.53;5000579;28;20046;-62
2024/02/16 03:41:20;;;;;;;9.55;6.32;;;;;;;7.60;65.93;100471.63;5000232;28;20056;-60
2024/02/16 03:43:46;;;;;;;8.18;4.95;;;;;;;7.58;64.89;100477.97;5001462;28;20037;-61
2024/02/16 03:46:11;;;;;;;10.13;6.00;;;;;;;7.65;64.45;100477.34;4999755;28;20065;-61
2024/02/16 03:48:38;;;;;;;10.55;5.82;;;;;;;7.67;64.97;100471.94;5000087;28;20050;-62
2024/02/16 03:51:03;;;;;;;8.68;4.90;;;;;;;7.69;64.46;100476.13;5000279;28;20062;-62
2024/02/16 03:53:29;;;;;;;7.22;4.55;;;;;;;7.75;64.30;100469.53;5000522;28;20061;-61
2024/02/16 03:55:55;;;;;;;7.45;4.65;;;;;;;7.90;64.27;100485.88;4999955;28;20073;-60
2024/02/16 03:58:22;;;;;;;11.73;5.50;;;;;;;7.92;64.28;100489.22;5001461;28;20034;-63
2024/02/16 04:00:48;;;;;;;6.40;4.80;;;;;;;7.25;66.49;100492.03;4999470;28;20053;-62
2024/02/16 04:03:14;;;;;;;10.50;6.05;;;;;;;7.00;68.32;100485.25;5000229;28;20077;-61
2024/02/16 04:05:40;;;;;;;10.50;7.05;;;;;;;6.93;69.16;100484.06;4999191;28;20038;-60
2024/02/16 04:08:07;;;;;;;14.57;7.47;;;;;;;7.10;68.51;100488.84;5000501;28;20041;-61
2024/02/16 04:10:33;;;;;;;8.40;5.32;;;;;;;7.30;67.43;100488.09;4999729;28;20089;-61
2024/02/16 04:12:59;;;;;;;9.77;5.03;;;;;;;7.35;67.22;100485.09;4999214;28;20041;-60
2024/02/16 04:15:25;;;;;;;8.00;4.65;;;;;;;7.17;67.41;100487.38;4999259;28;20050;-61
2024/02/16 04:17:51;;;;;;;8.40;4.88;;;;;;;7.26;68.03;100486.66;5000050;28;20026;-60
2024/02/16 04:20:17;;;;;;;7.65;4.72;;;;;;;7.18;67.70;100485.59;5000344;28;20569;-62
2024/02/16 04:22:43;;;;;;;8.98;5.50;;;;;;;7.35;67.47;100485.94;4999432;28;20041;-62
2024/02/16 04:25:09;;;;;;;16.08;7.32;;;;;;;7.13;68.09;100483.31;4999772;28;20233;-60
2024/02/16 04:27:35;;;;;;;21.23;10.32;;;;;;;7.25;68.07;100484.97;4998836;28;20037;-60
2024/02/16 04:30:01;;;;;;;16.00;9.38;;;;;;;7.30;68.14;100485.47;5000133;28;20050;-61
2024/02/16 04:32:27;;;;;;;14.82;7.95;;;;;;;7.52;66.59;100489.84;4998432;28;20042;-61
2024/02/16 04:34:52;;;;;;;8.63;6.18;;;;;;;7.48;66.98;100491.06;5000173;28;20089;-61
2024/02/16 04:37:18;;;;;;;12.10;7.18;;;;;;;7.60;66.75;100494.50;4999135;28;20038;-61
2024/02/16 04:39:45;;;;;;;12.10;7.68;;;;;;;7.72;65.75;100497.94;4998184;28;20209;-61
2024/02/16 04:42:11;;;;;;;11.77;6.20;;;;;;;7.37;67.43;100488.47;4998472;28;20045;-61
2024/02/16 04:44:41;;;;;;;14.15;7.50;;;;;;;7.32;68.29;100488.00;5000269;28;20350;-60
2024/02/16 04:47:06;;;;;;;12.40;7.65;;;;;;;7.46;67.11;100492.16;4998087;28;20076;-61
2024/02/16 04:49:32;;;;;;;15.73;8.88;;;;;;;7.60;65.55;100490.06;4999841;28;20367;-61
2024/02/16 04:51:57;;;;;;;14.48;7.38;;;;;;;7.26;66.80;100488.44;4998438;28;20030;-62
2024/02/16 04:54:23;;;;;;;14.10;7.60;;;;;;;7.25;66.54;100489.41;4999987;28;20034;-62
2024/02/16 04:56:49;;;;;;;13.73;7.43;;;;;;;7.33;66.32;100497.56;4998044;28;20033;-62
2024/02/16 04:59:16;;;;;;;13.30;6.82;;;;;;;7.32;66.53;100490.63;5000173;28;20329;-60
2024/02/16 05:01:44;;;;;;;10.88;6.03;;;;;;;7.16;67.23;100500.69;4997375;28;20332;-62
2024/02/16 05:04:10;;;;;;;9.48;5.38;;;;;;;7.15;67.72;100497.22;4999249;28;20041;-62
2024/02/16 05:06:43;;;;;;;7.60;4.88;;;;;;;7.15;68.07;100502.47;4997870;28;21143;-60
2024/02/16 05:09:08;;;;;;;7.15;4.95;;;;;;;7.26;66.85;100499.81;5013825;28;20117;-61
2024/02/16 05:11:34;;;;;;;8.30;5.85;;;;;;;7.22;67.78;100501.03;4997949;28;20272;-61
2024/02/16 05:14:00;;;;;;;9.48;6.57;;;;;;;7.30;67.08;100505.72;4999587;28;20046;-60
2024/02/16 05:16:25;;;;;;;7.13;5.18;;;;;;;7.28;65.89;100505.84;4997982;28;20054;-61
2024/02/16 05:18:51;;;;;;;13.52;6.65;;;;;;;7.48;65.91;100506.03;5000134;28;20575;-60
2024/02/16 05:21:17;;;;;;;11.00;6.78;;;;;;;7.61;65.66;100504.91;4997437;28;20030;-61
2024/02/16 05:23:42;;;;;;;14.35;7.53;;;;;;;7.53;64.53;100503.88;4999186;28;20034;-62
2024/02/16 05:26:08;;;;;;;10.35;6.43;;;;;;;7.57;64.64;100503.50;4998648;28;20030;-62
2024/02/16 05:28:34;;;;;;;12.15;7.00;;;;;;;6.98;67.03;100514.34;4997379;28;20046;-61
2024/02/16 05:31:12;;;;;;;16.23;7.10;;;;;;;7.26;66.15;100514.78;4998414;28;20339;-61
2024/02/16 05:33:38;;;;;;;16.33;7.20;;;;;;;7.44;65.38;100521.25;4997940;28;20453;-62
2024/02/16 05:36:03;;;;;;;13.82;6.68;;;;;;;7.49;65.48;100520.88;4998917;28;20039;-63
2024/02/16 05:38:34;;;;;;;15.68;7.20;;;;;;;7.60;64.57;100521.69;4998347;28;20049;-61
2024/02/16 05:41:00;;;;;;;11.38;5.88;;;;;;;7.33;64.84;100523.91;4999020;28;20045;-61
2024/02/16 05:43:25;;;;;;;12.93;6.75;;;;;;;7.44;64.82;100517.78;4997261;28;20236;-61
2024/02/16 05:45:51;;;;;;;10.65;6.00;;;;;;;7.51;64.70;100525.06;4998863;28;20022;-61
2024/02/16 05:48:17;;;;;;;10.82;5.32;;;;;;;7.55;65.11;100525.66;4997612;28;20275;-60
2024/02/16 05:50:43;;;;;;;8.82;4.97;;;;;;;7.59;65.21;100527.09;4998347;28;20349;-61
2024/02/16 05:53:10;;;;;;;7.68;4.90;;;;;;;7.37;66.10;100535.88;4997841;28;20054;-61
2024/02/16 05:55:36;;;;;;;11.43;5.32;;;;;;;7.58;65.02;100533.31;4997345;28;20034;-63
2024/02/16 05:58:04;;;;;;;8.77;5.40;;;;;;;7.68;65.05;100527.19;4997084;28;20359;-60
2024/02/16 06:00:34;;;;;;;9.65;5.20;;;;;;;7.60;64.94;100526.13;4997052;28;20030;-61
2024/02/16 06:03:00;;;;;;;9.15;5.78;;;;;;;7.62;64.64;100529.47;4996759;28;20038;-61
2024/02/16 06:05:25;;;;;;;13.13;6.88;;;;;;;7.58;65.46;100541.22;4998023;28;20065;-63
2024/02/16 06:07:51;;;;;;;10.88;6.35;;;;;;;7.64;65.00;100531.03;4996826;28;20042;-64
2024/02/16 06:10:17;;;;;;;11.20;5.20;;;;;;;7.82;64.69;100541.03;4997201;28;20053;-63
2024/02/16 06:12:43;;;;;;;7.15;5.53;;;;;;;7.92;64.33;100544.59;4996449;28;20093;-62
2024/02/16 06:15:09;;;;;;;12.45;5.50;;;;;;;7.76;64.59;100546.81;4998255;28;20414;-63
2024/02/16 06:17:36;;;;;;;10.27;5.50;;;;;;;7.80;64.28;100538.53;4997989;28;20085;-63
2024/02/16 06:20:03;;;;;;;12.20;6.45;;;;;;;7.65;65.27;100550.31;4997966;28;20038;-61
2024/02/16 06:22:31;;;;;;;11.38;6.13;;;;;;;7.87;64.18;100544.97;4997808;28;20094;-62
2024/02/16 06:24:57;;;;;;;13.40;6.97;;;;;;;8.03;63.90;100549.81;4997940;28;20046;-63
2024/02/16 06:27:23;;;;;;;14.45;6.90;;;;;;;8.18;63.81;100558.28;4997001;28;20046;-62
2024/02/16 06:29:49;;;;;;;12.05;6.75;;;;;;;7.93;65.23;100559.47;4997520;28;20105;-62
2024/02/16 06:32:16;;;;;;;11.20;6.30;;;;;;;7.99;65.20;100564.22;4997780;28;20053;-62
2024/02/16 06:34:42;;;;;;;12.38;6.63;;;;;;;8.18;64.61;100563.56;4998638;28;20050;-62
2024/02/16 06:37:08;;;;;;;12.80;6.22;;;;;;;7.92;65.42;100560.41;4999022;28;20102;-62
2024/02/16 06:39:34;;;;;;;10.02;6.28;;;;;;;7.87;65.33;100554.69;4997668;28;20081;-62
2024/02/16 06:42:00;;;;;;;10.77;6.03;;;;;;;7.96;65.01;100560.03;4998334;28;20038;-64
2024/02/16 06:44:25;;;;;;;10.82;6.00;;;;;;;7.96;65.30;100565.31;4997533;28;20046;-63
2024/02/16 06:46:51;;;;;;;9.50;6.45;;;;;;;7.95;64.89;100558.38;4998959;28;20038;-61
2024/02/16 06:49:17;;;;;;;9.88;6.32;;;;;;;7.94;65.64;100555.84;4997866;28;20034;-63
2024/02/16 06:51:44;;;;;;;9.85;6.22;;;;;;;8.12;65.71;100566.69;4998362;28;20034;-62
2024/02/16 06:54:10;;;;;;;12.15;6.75;;;;;;;8.19;64.97;100570.50;4997918;28;20344;-62
2024/02/16 06:56:37;;;;;;;12.23;7.22;;;;;;;8.56;63.55;100568.34;4998330;28;20061;-61
2024/02/16 06:59:02;;;;;;;12.65;7.10;;;;;;;8.40;62.94;100568.78;4997677;28;20042;-63
2024/02/16 07:01:28;;;;;;;12.20;7.70;;;;;;;8.38;63.55;100565.44;4998127;28;20455;-64
2024/02/16 07:03:54;;;;;;;10.90;6.53;;;;;;;8.74;62.57;100561.50;4997592;28;20041;-62
2024/02/16 07:06:20;;;;;;;11.07;7.07;;;;;;;8.75;62.16;100562.34;4997734;28;20030;-63
2024/02/16 07:08:45;;;;;;;10.35;6.32;;;;;;;8.92;61.76;100564.38;4997476;28;20053;-63
2024/02/16 07:11:11;;;;;;;7.68;5.80;;;;;;;9.16;60.75;100559.63;4997818;28;20042;-61
2024/02/16 07:13:38;;;;;;;11.38;6.32;;;;;;;9.16;60.37;100564.91;4998610;28;20050;-61
2024/02/16 07:16:04;;;;;;;10.48;6.70;;;;;;;8.98;61.68;100565.66;4997495;28;20162;-62
2024/02/16 07:18:30;;;;;;;12.60;7.13;;;;;;;9.37;60.72;100566.69;4998643;28;20434;-62
2024/02/16 07:20:56;;;;;;;11.95;6.15;;;;;;;9.42;59.77;100560.00;4997092;28;20049;-62
2024/02/16 07:23:22;;;;;;;12.27;6.65;;;;;;;9.54;59.88;100563.38;4998208;28;20062;-64
2024/02/16 07:25:48;;;;;;;12.00;6.20;;;;;;;9.69;59.83;100562.03;4996556;28;20033;-63
2024/02/16 07:28:14;;;;;;;8.68;5.53;;;;;;;9.86;58.86;100573.75;4998531;28;20268;-61
2024/02/16 07:30:40;;;;;;;7.57;5.07;;;;;;;10.13;57.68;100568.63;4996272;28;20042;-62
2024/02/16 07:33:07;;;;;;;7.95;4.82;;;;;;;10.30;57.65;100572.41;4998007;28;20093;-63
2024/02/16 07:35:35;;;;;;;6.03;4.18;;;;;;;10.39;56.21;100573.38;4996287;28;20038;-64
2024/02/16 07:38:00;;;;;;;6.93;4.50;;;;;;;10.51;55.75;100574.94;4997774;28;20388;-62
2024/02/16 07:40:26;;;;;;;5.75;3.72;;;;;;;10.64;54.40;100564.03;4996351;28;20037;-63
2024/02/16 07:42:51;;;;;;;6.72;4.32;;;;;;;10.57;53.75;100563.78;4997473;28;20382;-62
2024/02/16 07:45:17;;;;;;;7.13;4.38;;;;;;;10.62;53.73;100569.47;4995966;28;20042;-62
2024/02/16 07:47:42;;;;;;;5.13;3.92;;;;;;;10.65;53.36;100560.41;4997114;28;20041;-64
2024/02/16 07:50:09;;;;;;;6.50;3.58;;;;;;;10.80;52.84;100564.28;4995788;28;20221;-65
2024/02/16 07:52:34;;;;;;;6.57;3.97;;;;;;;10.99;52.23;100561.56;4995370;28;20038;-61
2024/02/16 07:55:01;;;;;;;9.35;3.78;;;;;;;11.20;52.44;100561.34;4996526;28;20034;-61
2024/02/16 07:57:26;;;;;;;6.55;4.13;;;;;;;11.27;52.16;100564.25;4995434;28;20235;-61
2024/02/16 07:59:52;;;;;;;6.85;3.70;;;;;;;11.40;51.68;100562.94;4997168;28;20100;-62
2024/02/16 08:02:17;;;;;;;3.00;2.70;;;;;;;11.37;49.79;100570.34;4998983;28;20084;-63
2024/02/16 08:04:47;;;;;;;5.03;3.53;;;;;;;11.26;49.95;100560.75;5000046;28;20037;-62
2024/02/16 08:07:13;;;;;;;6.25;3.45;;;;;;;11.46;50.17;100564.19;4999472;28;20149;-63
2024/02/16 08:09:39;;;;;;;4.97;3.60;;;;;;;11.55;50.11;100562.47;5000597;28;20038;-63
2024/02/16 08:12:06;;;;;;;6.45;4.10;;;;;;;11.65;48.79;100561.41;4999515;28;20030;-60
2024/02/16 08:14:33;;;;;;;4.50;3.40;;;;;;;11.56;49.19;100566.78;5001224;28;20105;-62
2024/02/16 08:16:59;;;;;;;5.07;4.07;;;;;;;11.56;49.82;100574.75;4999117;28;20336;-63
2024/02/16 08:19:33;;;;;;;5.82;3.90;;;;;;;11.84;50.36;100571.09;5001402;28;20049;-60
2024/02/16 08:22:00;;;;;;;7.80;4.72;;;;;;;11.93;50.29;100567.53;4998779;28;20375;-60
2024/02/16 08:24:26;;;;;;;8.90;4.28;;;;;;;12.16;49.56;100573.25;5001601;28;20046;-61
2024/02/16 08:26:51;;;;;;;6.50;4.65;;;;;;;12.25;48.60;100571.50;4999160;28;20053;-61
2024/02/16 08:29:17;;;;;;;8.38;5.15;;;;;;;11.97;49.44;100566.25;4999609;28;20046;-62
2024/02/16 08:31:43;;;;;;;5.80;4.32;;;;;;;11.98;49.06;100569.75;5000091;28;20366;-60
2024/02/16 08:34:10;;;;;;;6.40;4.25;;;;;;;11.99;48.96;100568.75;4999184;28;20356;-61
2024/02/16 08:36:37;;;;;;;5.20;4.20;;;;;;;11.97;48.72;100563.59;5000631;28;20034;-60
2024/02/16 08:39:03;;;;;;;8.10;4.50;;;;;;;11.87;50.11;100562.84;4999471;28;20109;-62
2024/02/16 08:41:28;;;;;;;7.32;5.00;;;;;;;12.12;50.34;100566.56;5000706;28;20224;-63
2024/02/16 08:43:54;;;;;;;6.57;4.28;;;;;;;12.20;50.09;100566.63;4999697;28;20042;-61
2024/02/16 08:46:20;;;;;;;6.72;4.60;;;;;;;12.11;49.93;100564.91;5000456;28;20375;-61
2024/02/16 08:48:47;;;;;;;6.22;4.55;;;;;;;12.14;49.69;100559.28;4999646;28;20118;-61
2024/02/16 08:51:12;;;;;;;7.40;4.40;;;;;;;12.15;50.43;100568.91;4981992;28;20035;-61
2024/02/16 08:53:38;;;;;;;7.43;4.60;;;;;;;11.95;51.03;100576.19;4984337;28;20334;-61
2024/02/16 08:56:03;;;;;;;6.03;4.35;;;;;;;12.08;50.92;100573.16;5001005;28;20045;-61
2024/02/16 08:58:29;;;;;;;6.85;4.63;;;;;;;11.84;51.31;100571.09;4998194;28;20038;-61
2024/02/16 09:00:54;;;;;;;6.80;4.78;;;;;;;11.66;52.43;100576.34;4999756;28;20044;-61
2024/02/16 09:03:20;;;;;;;8.20;5.35;;;;;;;11.83;52.29;100569.44;4998965;28;20045;-61
2024/02/16 09:05:45;;;;;;;7.97;4.65;;;;;;;11.86;52.55;100578.91;4997659;28;20386;-62
2024/02/16 09:08:11;;;;;;;8.02;5.00;;;;;;;12.00;53.31;100571.28;4998028;28;20038;-62
2024/02/16 09:10:37;;;;;;;7.55;4.80;;;;;;;12.06;53.22;100569.81;4997573;28;20033;-63
2024/02/16 09:13:02;;;;;;;7.75;5.40;;;;;;;12.12;53.23;100566.56;4998043;28;20236;-62
2024/02/16 09:15:28;;;;;;;10.32;5.05;;;;;;;12.07;53.27;100567.03;4997668;28;20144;-62
2024/02/16 09:17:53;;;;;;;5.03;4.15;;;;;;;12.23;52.48;100566.34;4998683;28;20057;-62
2024/02/16 09:20:22;;;;;;;5.82;4.53;;;;;;;12.23;51.81;100568.16;4997203;28;20049;-63
2024/02/16 09:22:48;;;;;;;5.85;3.92;;;;;;;12.25;51.91;100559.06;4998411;28;20088;-63
2024/02/16 09:25:14;;;;;;;6.43;3.92;;;;;;;12.23;51.09;100569.00;4997819;28;20046;-63
2024/02/16 09:27:41;;;;;;;7.20;4.15;;;;;;;12.19;50.83;100569.44;4998293;28;20311;-62
2024/02/16 09:30:10;;;;;;;4.57;3.47;;;;;;;12.47;49.85;100569.19;4998641;28;20061;-62
2024/02/16 09:32:38;;;;;;;4.82;3.10;;;;;;;12.63;49.46;100562.38;4996374;28;20037;-62
2024/02/16 09:35:04;;;;;;;4.95;3.03;;;;;;;12.80;48.37;100561.47;4998004;28;20173;-62
2024/02/16 09:37:30;;;;;;;3.03;2.72;;;;;;;12.96;47.43;100558.09;4996697;28;20045;-62
2024/02/16 09:39:55;;;;;;;4.53;3.17;;;;;;;13.02;47.92;100557.47;4997698;28;20112;-62
2024/02/16 09:42:24;;;;;;;7.25;3.72;;;;;;;13.04;48.00;100550.16;4997284;28;20039;-63
2024/02/16 09:44:51;;;;;;;6.82;3.55;;;;;;;13.02;48.25;100554.81;4998156;28;20030;-64
2024/02/16 09:47:19;;;;;;;4.20;2.95;;;;;;;13.25;47.07;100550.63;4996585;28;20105;-64
2024/02/16 09:49:47;;;;;;;3.90;2.20;;;;;;;13.40;45.87;100546.38;4997087;28;20092;-62
2024/02/16 09:52:13;;;;;;;3.45;2.50;;;;;;;13.45;45.15;100543.22;4996554;28;20310;-62
2024/02/16 09:54:39;;;;;;;3.47;2.70;;;;;;;13.59;45.11;100544.47;4997942;28;20357;-63
2024/02/16 09:57:05;;;;;;;2.90;2.28;;;;;;;13.76;44.35;100542.66;4996974;28;20061;-63
2024/02/16 09:59:32;;;;;;;4.10;2.90;;;;;;;13.88;42.80;100539.53;4996967;28;20057;-64
2024/02/16 10:02:04;;;;;;;2.28;1.90;;;;;;;13.93;42.53;100537.22;4995857;28;20405;-63
2024/02/16 10:04:30;;;;;;;2.35;2.00;;;;;;;13.95;42.27;100526.41;4996494;28;20205;-62
2024/02/16 10:06:55;;;;;;;3.17;2.30;;;;;;;13.89;42.33;100525.22;4997567;28;20042;-63
2024/02/16 10:09:28;;;;;;;2.92;2.22;;;;;;;14.02;42.08;100525.56;4997852;28;20353;-62
2024/02/16 10:11:54;;;;;;;2.58;2.10;;;;;;;14.19;42.57;100518.41;4997360;28;20278;-63
2024/02/16 10:14:19;;;;;;;3.38;2.53;;;;;;;14.27;42.95;100513.09;4996488;28;20096;-62
2024/02/16 10:16:58;;;;;;;4.97;3.47;;;;;;;14.42;43.05;100515.94;4997852;28;20046;-63
2024/02/16 10:19:24;;;;;;;5.93;3.53;;;;;;;14.56;43.86;100512.59;4996584;28;20049;-62
2024/02/16 10:21:49;;;;;;;5.60;3.40;;;;;;;14.67;42.92;100512.28;4997790;28;20034;-62
2024/02/16 10:24:15;;;;;;;4.50;2.35;;;;;;;14.64;41.89;100509.94;4994852;28;20062;-60
2024/02/16 10:26:40;;;;;;;5.95;2.97;;;;;;;14.71;41.73;100503.94;4997108;28;20034;-62
2024/02/16 10:29:09;;;;;;;5.63;2.70;;;;;;;14.78;41.52;100499.59;4995918;28;20039;-62
2024/02/16 10:31:35;;;;;;;4.20;2.80;;;;;;;14.74;41.40;100500.94;4996983;28;20310;-61
2024/02/16 10:34:05;;;;;;;3.55;2.45;;;;;;;14.73;41.20;100492.09;4996439;28;20053;-62
2024/02/16 10:36:34;;;;;;;2.42;2.20;;;;;;;14.60;40.63;100492.63;4996964;28;20046;-62
2024/02/16 10:39:04;;;;;;;1.83;1.73;;;;;;;14.54;41.48;100489.78;4996761;28;20034;-62
2024/02/16 10:41:36;;;;;;;3.72;2.88;;;;;;;14.56;41.36;100493.94;4996555;28;20045;-61
2024/02/16 10:44:04;;;;;;;2.80;2.60;;;;;;;14.66;42.11;100486.63;4996372;28;20048;-61
2024/02/16 10:46:30;;;;;;;2.95;2.65;;;;;;;14.71;41.61;100478.09;4995970;28;20089;-63
2024/02/16 10:48:55;;;;;;;4.05;2.53;;;;;;;14.73;42.42;100480.59;4996221;28;20244;-61
2024/02/16 10:51:44;;;;;;;3.38;2.17;;;;;;;14.59;40.95;100479.47;4996572;28;20034;-60
2024/02/16 10:54:14;;;;;;;2.90;2.60;;;;;;;14.73;41.40;100477.94;4996977;28;20034;-60
2024/02/16 10:56:40;;;;;;;2.97;2.30;;;;;;;14.77;40.96;100479.25;4996505;28;20034;-60
2024/02/16 10:59:08;;;;;;;2.83;2.42;;;;;;;14.78;40.53;100481.75;4996585;28;20116;-61
2024/02/16 11:01:44;;;;;;;2.63;1.98;;;;;;;14.80;39.77;100477.09;4996008;28;20033;-61
2024/02/16 11:04:15;;;;;;;3.38;2.25;;;;;;;14.77;39.97;100477.41;4996421;28;20236;-62
2024/02/16 11:06:56;;;;;;;3.65;1.92;;;;;;;14.80;39.90;100470.91;4996245;28;20121;-60
2024/02/16 11:09:38;;;;;;;2.92;1.88;;;;;;;14.70;40.41;100476.44;4996537;28;20042;-61
2024/02/16 11:12:05;;;;;;;2.25;2.05;;;;;;;14.72;40.52;100462.94;4996505;28;20034;-60
2024/02/16 11:14:48;;;;;;;2.83;2.00;;;;;;;14.72;40.08;100455.78;4996697;28;20038;-60
2024/02/16 11:17:15;;;;;;;2.47;2.00;;;;;;;14.77;40.17;100463.25;4995893;28;20042;-63
2024/02/16 11:19:42;;;;;;;3.20;2.10;;;;;;;14.80;40.26;100463.75;4996400;28;20034;-61
2024/02/16 11:22:11;;;;;;;5.47;2.30;;;;;;;14.78;40.51;100456.94;4995665;28;20030;-61
2024/02/16 11:24:42;;;;;;;2.92;1.85;;;;;;;14.63;40.28;100462.13;4997512;28;20050;-61
2024/02/16 11:27:09;;;;;;;2.85;1.83;;;;;;;14.54;40.44;100449.81;4995472;28;20045;-62